Cisne Branco — PWCB — position and weather

sailwx.info

Track history (hours):
 
Tides and Currents Weather Stations Pressure Air Temp Water Temp Dewpoint Dewpoint Depression Visibility Wind Speed Wind Dir Waves Ship Positions

Cisne Branco (Brazil)

Last reported at 2019-Aug-15 07:52 UTC. Time now 2019-Aug-22 08:51 UTC.
Position N 57°09' E 008°16'.

Length 78 m; draft 4.8 m.

MMSI: 710428000.

Date/timePositionNaut miles runAvg speedWind from/ knotsBaromVisibWave heightAir tempDewpointWater temp
2019-Aug-15 07:52N 57°09' E 008°16'7 7.1
2019-Aug-15 06:52N 57°13' E 008°27'76 6.7
2019-Aug-14 19:28N 57°49' E 010°31'2 4.0
2019-Aug-14 19:00N 57°49' E 010°35'2 3.8
2019-Aug-14 18:30N 57°48' E 010°38'2 3.9
2019-Aug-14 18:00N 57°48' E 010°42'2 4.7
2019-Aug-14 17:30N 57°46' E 010°46'3 5.2
2019-Aug-14 17:00N 57°45' E 010°49'3 6.0
2019-Aug-14 16:30N 57°43' E 010°53'3 6.1
2019-Aug-14 16:00N 57°40' E 010°57'3 6.1
2019-Aug-14 15:30N 57°38' E 011°01'3 6.0
2019-Aug-14 15:00N 57°36' E 011°05'3 6.6
2019-Aug-14 14:30N 57°34' E 011°09'3 6.7
2019-Aug-14 14:00N 57°31' E 011°14'4 7.2
2019-Aug-14 13:30N 57°29' E 011°18'5 7.8
2019-Aug-14 12:54N 57°25' E 011°24'90 6.8
2019-Aug-13 23:43N 56°05' E 012°37'1 6.4
2019-Aug-13 23:30N 56°04' E 012°38'3 6.3
2019-Aug-13 23:00N 56°01' E 012°41'3 6.4
2019-Aug-13 22:30N 55°58' E 012°43'3 6.7
2019-Aug-13 22:00N 55°55' E 012°44'3 6.6
2019-Aug-13 21:30N 55°52' E 012°44'3 6.9
2019-Aug-13 21:00N 55°48' E 012°43'4 7.3
2019-Aug-13 20:30N 55°45' E 012°42'4 7.3
2019-Aug-13 20:00N 55°41' E 012°41'3 6.5
2019-Aug-13 19:29N 55°38' E 012°42'3 6.5
2019-Aug-13 18:58N 55°34' E 012°42'7 7.5
2019-Aug-13 18:00N 55°27' E 012°42'67 6.2
2019-Aug-13 07:09N 54°58' E 014°29'6 7.3
2019-Aug-13 06:16N 54°56' E 014°39'2 7.6
2019-Aug-13 06:00N 54°55' E 014°43'4 7.3
2019-Aug-13 05:25N 54°55' E 014°50'124 7.4
2019-Aug-12 12:41N 54°53' E 018°25'1 6.4
2019-Aug-12 12:30N 54°52' E 018°27'4 7.1
2019-Aug-12 11:54N 54°50' E 018°34'3 7.4
2019-Aug-12 11:30N 54°49' E 018°38'4 8.0
2019-Aug-12 11:00N 54°46' E 018°44'4 8.1
2019-Aug-12 10:30N 54°43' E 018°48'4 8.2
2019-Aug-12 10:00N 54°39' E 018°50'4 7.8
2019-Aug-12 09:30N 54°35' E 018°50'4 8.4
2019-Aug-12 09:00N 54°33' E 018°44'4 8.2
2019-Aug-12 08:30N 54°31' E 018°38'3 5.2
2019-Aug-12 08:00N 54°31' E 018°33'0 0.0
2019-Aug-12 07:29N 54°31' E 018°33'0 0.0
2019-Aug-12 06:59N 54°31' E 018°33'0 0.0
2019-Aug-12 06:26N 54°31' E 018°33'0 0.0
2019-Aug-12 05:59N 54°31' E 018°33'0 0.0
2019-Aug-12 05:29N 54°31' E 018°33'0 0.0
2019-Aug-12 04:59N 54°31' E 018°33'0 0.0
2019-Aug-12 04:29N 54°31' E 018°33'  
2019-Aug-07 07:01N 54°31' E 018°33'0 0.0
2019-Aug-07 07:01N 54°31' E 018°33'1 1.3
2019-Aug-07 06:31N 54°31' E 018°34'3 5.8
2019-Aug-07 06:00N 54°32' E 018°39'2 4.3
2019-Aug-07 05:31N 54°32' E 018°42'2 3.6
2019-Aug-07 05:01N 54°32' E 018°45'3 5.3
2019-Aug-07 04:31N 54°34' E 018°49'3 6.1
2019-Aug-07 04:01N 54°36' E 018°53'3 6.7
2019-Aug-07 03:30N 54°39' E 018°55'3 6.4
2019-Aug-07 03:01N 54°42' E 018°57'4 6.1
2019-Aug-07 02:26N 54°45' E 018°60'3 6.1
2019-Aug-07 01:59N 54°48' E 019°01'2 5.0
2019-Aug-07 01:31N 54°50' E 018°60'4 5.0
2019-Aug-07 00:37N 54°53' E 018°55'1 4.9
2019-Aug-07 00:31N 54°54' E 018°54'209 5.2
2019-Aug-05 08:17N 55°14' E 012°51'  
Track history (hours):
 
Tides and Currents Weather Stations Pressure Air Temp Water Temp Dewpoint Dewpoint Depression Visibility Wind Speed Wind Dir Waves Ship Positions

Cisne Branco (Brazil)

Last reported at 2019-Aug-15 07:52 UTC. Time now 2019-Aug-22 08:51 UTC.
Position N 57°09' E 008°16'.

Length 78 m; draft 4.8 m.

MMSI: 710428000.

Date/timePositionNaut miles runAvg speedWind from/ knotsBaromVisibWave heightAir tempDewpointWater temp
2019-Aug-15 07:52N 57°09' E 008°16'7 7.1
2019-Aug-15 06:52N 57°13' E 008°27'76 6.7
2019-Aug-14 19:28N 57°49' E 010°31'2 4.0
2019-Aug-14 19:00N 57°49' E 010°35'2 3.8
2019-Aug-14 18:30N 57°48' E 010°38'2 3.9
2019-Aug-14 18:00N 57°48' E 010°42'2 4.7
2019-Aug-14 17:30N 57°46' E 010°46'3 5.2
2019-Aug-14 17:00N 57°45' E 010°49'3 6.0
2019-Aug-14 16:30N 57°43' E 010°53'3 6.1
2019-Aug-14 16:00N 57°40' E 010°57'3 6.1
2019-Aug-14 15:30N 57°38' E 011°01'3 6.0
2019-Aug-14 15:00N 57°36' E 011°05'3 6.6
2019-Aug-14 14:30N 57°34' E 011°09'3 6.7
2019-Aug-14 14:00N 57°31' E 011°14'4 7.2
2019-Aug-14 13:30N 57°29' E 011°18'5 7.8
2019-Aug-14 12:54N 57°25' E 011°24'90 6.8
2019-Aug-13 23:43N 56°05' E 012°37'1 6.4
2019-Aug-13 23:30N 56°04' E 012°38'3 6.3
2019-Aug-13 23:00N 56°01' E 012°41'3 6.4
2019-Aug-13 22:30N 55°58' E 012°43'3 6.7
2019-Aug-13 22:00N 55°55' E 012°44'3 6.6
2019-Aug-13 21:30N 55°52' E 012°44'3 6.9
2019-Aug-13 21:00N 55°48' E 012°43'4 7.3
2019-Aug-13 20:30N 55°45' E 012°42'4 7.3
2019-Aug-13 20:00N 55°41' E 012°41'3 6.5
2019-Aug-13 19:29N 55°38' E 012°42'3 6.5
2019-Aug-13 18:58N 55°34' E 012°42'7 7.5
2019-Aug-13 18:00N 55°27' E 012°42'67 6.2
2019-Aug-13 07:09N 54°58' E 014°29'6 7.3
2019-Aug-13 06:16N 54°56' E 014°39'2 7.6
2019-Aug-13 06:00N 54°55' E 014°43'4 7.3
2019-Aug-13 05:25N 54°55' E 014°50'124 7.4
2019-Aug-12 12:41N 54°53' E 018°25'1 6.4
2019-Aug-12 12:30N 54°52' E 018°27'4 7.1
2019-Aug-12 11:54N 54°50' E 018°34'3 7.4
2019-Aug-12 11:30N 54°49' E 018°38'4 8.0
2019-Aug-12 11:00N 54°46' E 018°44'4 8.1
2019-Aug-12 10:30N 54°43' E 018°48'4 8.2
2019-Aug-12 10:00N 54°39' E 018°50'4 7.8
2019-Aug-12 09:30N 54°35' E 018°50'4 8.4
2019-Aug-12 09:00N 54°33' E 018°44'4 8.2
2019-Aug-12 08:30N 54°31' E 018°38'3 5.2
2019-Aug-12 08:00N 54°31' E 018°33'0 0.0
2019-Aug-12 07:29N 54°31' E 018°33'0 0.0
2019-Aug-12 06:59N 54°31' E 018°33'0 0.0
2019-Aug-12 06:26N 54°31' E 018°33'0 0.0
2019-Aug-12 05:59N 54°31' E 018°33'0 0.0
2019-Aug-12 05:29N 54°31' E 018°33'0 0.0
2019-Aug-12 04:59N 54°31' E 018°33'0 0.0
2019-Aug-12 04:29N 54°31' E 018°33'  
2019-Aug-07 07:01N 54°31' E 018°33'0 0.0
2019-Aug-07 07:01N 54°31' E 018°33'1 1.3
2019-Aug-07 06:31N 54°31' E 018°34'3 5.8
2019-Aug-07 06:00N 54°32' E 018°39'2 4.3
2019-Aug-07 05:31N 54°32' E 018°42'2 3.6
2019-Aug-07 05:01N 54°32' E 018°45'3 5.3
2019-Aug-07 04:31N 54°34' E 018°49'3 6.1
2019-Aug-07 04:01N 54°36' E 018°53'3 6.7
2019-Aug-07 03:30N 54°39' E 018°55'3 6.4
2019-Aug-07 03:01N 54°42' E 018°57'4 6.1
2019-Aug-07 02:26N 54°45' E 018°60'3 6.1
2019-Aug-07 01:59N 54°48' E 019°01'2 5.0
2019-Aug-07 01:31N 54°50' E 018°60'4 5.0
2019-Aug-07 00:37N 54°53' E 018°55'1 4.9
2019-Aug-07 00:31N 54°54' E 018°54'209 5.2
2019-Aug-05 08:17N 55°14' E 012°51'  

Dump ship's entire track history